Time;durP1;ratioP1;P1;durP2;ratioP2;P2;SDS_P1;SDS_P2;PMS_P1;PMS_P2;Temp;Humidity;BMP_temperature;BMP_pressure;BME280_temperature;BME280_humidity;BME280_pressure;Samples;Min_cycle;Max_cycle;Signal;HPM_P1;HPM_P2
2023/01/20 00:00:35;;;;;;;5.40;4.90;;;14.50;65.00;;;;;;5077070;28;20201;-46
2023/01/20 00:03:07;;;;;;;6.20;4.43;;;14.40;64.90;;;;;;5087209;28;20220;-46
2023/01/20 00:05:39;;;;;;;5.23;4.57;;;14.50;64.90;;;;;;5086686;28;20197;-46
2023/01/20 00:08:07;;;;;;;7.03;5.23;;;14.40;64.90;;;;;;5076282;28;20217;-46
2023/01/20 00:10:38;;;;;;;7.30;5.60;;;14.40;64.90;;;;;;5087835;28;20220;-46
2023/01/20 00:13:09;;;;;;;5.80;4.60;;;14.40;64.90;;;;;;5079538;28;20814;-46
2023/01/20 00:15:39;;;;;;;5.10;4.50;;;14.40;65.20;;;;;;5079892;28;20197;-46
2023/01/20 00:18:11;;;;;;;5.03;4.53;;;14.40;65.10;;;;;;5078170;27;24698;-46
2023/01/20 00:20:40;;;;;;;5.60;4.90;;;14.40;64.90;;;;;;5092969;28;20200;-46
2023/01/20 00:23:12;;;;;;;6.87;5.37;;;14.40;65.10;;;;;;5083947;28;20253;-46
2023/01/20 00:25:44;;;;;;;5.27;4.47;;;14.40;65.20;;;;;;5092908;28;20192;-46
2023/01/20 00:28:21;;;;;;;6.17;4.90;;;14.40;65.20;;;;;;5087398;28;20196;-46
2023/01/20 00:30:49;;;;;;;6.03;4.60;;;14.40;65.00;;;;;;5084560;28;20219;-46
2023/01/20 00:33:19;;;;;;;5.47;4.70;;;14.40;65.10;;;;;;5088420;28;20204;-46
2023/01/20 00:35:49;;;;;;;5.70;4.70;;;14.40;65.40;;;;;;5087449;28;20201;-46
2023/01/20 00:38:21;;;;;;;7.17;4.90;;;14.40;65.20;;;;;;5087861;28;20246;-46
2023/01/20 00:40:53;;;;;;;6.40;5.10;;;14.40;65.10;;;;;;5096944;28;20223;-46
2023/01/20 00:43:35;;;;;;;6.07;4.63;;;14.40;65.40;;;;;;5080765;28;20337;-46
2023/01/20 00:46:08;;;;;;;5.80;4.80;;;14.40;65.40;;;;;;5092285;28;20193;-46
2023/01/20 00:48:40;;;;;;;7.00;5.60;;;14.40;65.20;;;;;;5089355;28;20742;-46
2023/01/20 00:51:12;;;;;;;6.90;4.93;;;14.40;65.20;;;;;;5089550;28;20196;-46
2023/01/20 00:53:45;;;;;;;5.07;4.57;;;14.30;65.00;;;;;;5089480;28;20208;-46
2023/01/20 00:56:14;;;;;;;4.90;4.37;;;14.30;65.10;;;;;;5087712;28;20216;-46
2023/01/20 00:58:44;;;;;;;5.17;4.67;;;14.30;65.10;;;;;;5090289;28;20212;-46
2023/01/20 01:01:16;;;;;;;6.40;5.63;;;14.30;65.00;;;;;;5090278;28;20205;-46
2023/01/20 01:03:45;;;;;;;5.77;5.17;;;14.30;65.00;;;;;;5091062;28;20674;-46
2023/01/20 01:06:16;;;;;;;7.33;5.00;;;14.30;65.10;;;;;;5084503;28;20193;-46
2023/01/20 01:08:48;;;;;;;8.57;5.37;;;14.30;65.20;;;;;;5071714;28;20185;-46
2023/01/20 01:11:22;;;;;;;6.07;5.17;;;14.30;65.10;;;;;;5089495;28;20198;-46
2023/01/20 01:13:57;;;;;;;6.20;5.20;;;14.30;65.20;;;;;;5086711;28;20193;-46
2023/01/20 01:16:26;;;;;;;6.17;5.33;;;14.30;65.10;;;;;;5085395;28;21296;-47
2023/01/20 01:18:58;;;;;;;7.23;5.83;;;14.30;65.00;;;;;;5085549;28;20614;-46
2023/01/20 01:21:26;;;;;;;6.07;5.47;;;14.30;65.10;;;;;;5072391;28;20201;-47
2023/01/20 01:23:57;;;;;;;6.10;5.00;;;14.30;65.10;;;;;;5084302;28;20220;-46
2023/01/20 01:26:27;;;;;;;6.23;5.60;;;14.30;65.00;;;;;;5087809;28;20543;-46
2023/01/20 01:28:58;;;;;;;6.40;5.13;;;14.30;65.20;;;;;;5089047;28;20188;-46
2023/01/20 01:31:29;;;;;;;5.60;4.80;;;14.30;64.90;;;;;;5086246;28;20209;-46
2023/01/20 01:34:00;;;;;;;6.73;5.07;;;14.30;64.90;;;;;;5087101;28;20273;-47
2023/01/20 01:36:28;;;;;;;6.77;5.10;;;14.20;64.80;;;;;;5105250;28;20254;-46
2023/01/20 01:38:59;;;;;;;7.77;6.27;;;14.30;65.10;;;;;;5089232;28;20193;-46
2023/01/20 01:41:31;;;;;;;5.97;5.23;;;14.30;65.00;;;;;;5091509;28;20220;-46
2023/01/20 01:44:10;;;;;;;5.40;4.90;;;14.20;65.00;;;;;;5079575;28;20546;-46
2023/01/20 01:46:53;;;;;;;6.00;5.00;;;14.30;65.00;;;;;;5082677;28;20229;-46
2023/01/20 01:49:29;;;;;;;6.50;5.07;;;14.20;64.90;;;;;;5085098;28;20654;-46
2023/01/20 01:52:09;;;;;;;6.10;5.00;;;14.30;65.00;;;;;;5079502;28;20197;-46
2023/01/20 01:54:41;;;;;;;5.93;5.00;;;14.20;64.80;;;;;;5080017;28;20212;-46
2023/01/20 01:57:11;;;;;;;6.23;5.53;;;14.30;65.00;;;;;;5084962;28;20552;-46
2023/01/20 01:59:43;;;;;;;5.77;5.23;;;14.20;64.90;;;;;;5066974;28;20193;-46
2023/01/20 02:02:13;;;;;;;5.43;4.90;;;14.20;65.10;;;;;;5057194;28;20248;-46
2023/01/20 02:04:48;;;;;;;5.70;5.20;;;14.20;64.90;;;;;;5087128;28;20220;-46
2023/01/20 02:07:20;;;;;;;5.53;4.87;;;14.20;65.00;;;;;;5082491;28;20768;-46
2023/01/20 02:09:54;;;;;;;6.00;5.37;;;14.20;64.90;;;;;;5080970;28;20190;-46
2023/01/20 02:12:23;;;;;;;5.57;5.03;;;14.20;64.80;;;;;;5089393;28;20197;-47
2023/01/20 02:14:58;;;;;;;6.70;5.40;;;14.30;64.90;;;;;;5083736;28;20238;-46
2023/01/20 02:17:52;;;;;;;5.83;4.90;;;14.20;64.80;;;;;;5083674;28;20228;-46
2023/01/20 02:20:59;;;;;;;6.77;5.30;;;14.20;64.90;;;;;;5086817;28;20633;-46
2023/01/20 02:23:50;;;;;;;6.77;6.07;;;14.20;64.80;;;;;;5088313;28;20212;-46
2023/01/20 02:26:56;;;;;;;6.57;5.20;;;14.20;64.70;;;;;;5080386;28;20244;-46
2023/01/20 02:30:09;;;;;;;6.47;5.57;;;14.20;64.80;;;;;;5084200;28;20201;-46
2023/01/20 02:32:56;;;;;;;5.83;5.00;;;14.20;64.90;;;;;;5083221;28;20208;-46
2023/01/20 02:35:37;;;;;;;5.63;5.03;;;14.10;64.80;;;;;;5089625;28;20197;-46
2023/01/20 02:38:51;;;;;;;5.97;5.37;;;14.20;64.80;;;;;;5079406;28;20193;-46
2023/01/20 02:41:47;;;;;;;6.27;5.33;;;14.10;64.70;;;;;;5098936;28;20181;-46
2023/01/20 02:44:24;;;;;;;6.77;5.80;;;14.20;64.80;;;;;;5081126;28;20197;-46
2023/01/20 02:47:27;;;;;;;6.00;5.40;;;14.10;64.60;;;;;;5077498;28;20181;-46
2023/01/20 02:50:15;;;;;;;6.73;5.37;;;14.10;64.70;;;;;;5079119;28;20196;-45
2023/01/20 02:52:55;;;;;;;5.80;5.20;;;14.20;64.70;;;;;;5083062;28;20345;-46
2023/01/20 02:55:46;;;;;;;6.13;5.23;;;14.10;64.80;;;;;;5079791;28;20215;-46
2023/01/20 02:58:24;;;;;;;6.97;5.53;;;14.20;64.60;;;;;;5087294;28;20622;-46
2023/01/20 03:01:04;;;;;;;6.67;5.73;;;14.20;64.70;;;;;;5079545;28;20478;-46
2023/01/20 03:03:48;;;;;;;5.80;4.80;;;14.10;64.70;;;;;;5066584;28;20554;-46
2023/01/20 03:06:24;;;;;;;6.77;5.97;;;14.20;64.60;;;;;;5079514;28;20210;-46
2023/01/20 03:09:10;;;;;;;5.60;5.00;;;14.10;64.60;;;;;;5081250;28;20196;-46
2023/01/20 03:11:57;;;;;;;5.80;5.20;;;14.10;64.60;;;;;;5084664;28;20199;-46
2023/01/20 03:14:25;;;;;;;5.57;4.97;;;14.10;64.60;;;;;;5084668;28;20207;-46
2023/01/20 03:16:56;;;;;;;6.93;5.80;;;14.10;64.50;;;;;;5087689;28;20248;-46
2023/01/20 03:19:27;;;;;;;7.23;5.97;;;14.10;64.60;;;;;;5077926;28;20217;-46
2023/01/20 03:21:59;;;;;;;6.83;5.27;;;14.10;64.50;;;;;;5086563;28;20193;-46
2023/01/20 03:24:32;;;;;;;6.23;5.40;;;14.10;64.50;;;;;;5087599;28;20270;-51
2023/01/20 03:27:03;;;;;;;5.90;5.30;;;14.10;64.40;;;;;;5087391;28;20658;-46
2023/01/20 03:29:35;;;;;;;6.57;5.90;;;14.10;64.40;;;;;;5081991;28;21441;-46
2023/01/20 03:32:07;;;;;;;6.83;6.00;;;14.10;64.30;;;;;;5074135;28;20211;-46
2023/01/20 03:34:40;;;;;;;6.57;5.87;;;14.10;64.30;;;;;;5084965;28;20228;-46
2023/01/20 03:37:14;;;;;;;11.43;5.53;;;14.10;64.30;;;;;;5078115;28;20614;-46
2023/01/20 03:39:44;;;;;;;5.67;5.07;;;14.10;64.30;;;;;;5076315;28;20197;-46
2023/01/20 03:42:33;;;;;;;6.07;5.37;;;14.20;64.50;;;;;;5082584;27;20813;-46
2023/01/20 03:45:30;;;;;;;5.87;5.07;;;14.20;64.40;;;;;;5091368;28;20220;-47
2023/01/20 03:48:45;;;;;;;5.80;5.20;;;14.10;64.30;;;;;;5083683;28;20253;-46
2023/01/20 03:51:33;;;;;;;6.63;5.60;;;14.10;64.30;;;;;;5025146;28;20257;-46
2023/01/20 03:54:13;;;;;;;6.80;5.30;;;14.10;64.30;;;;;;5080488;27;20220;-48
2023/01/20 03:57:10;;;;;;;5.97;5.33;;;14.10;64.30;;;;;;5094342;28;20572;-46
2023/01/20 03:59:47;;;;;;;6.63;5.90;;;14.10;64.30;;;;;;5072333;28;20194;-46
2023/01/20 04:02:37;;;;;;;5.87;5.20;;;14.10;64.30;;;;;;5084604;28;20204;-46
2023/01/20 04:05:13;;;;;;;5.87;5.27;;;14.00;64.30;;;;;;5087790;28;20220;-46
2023/01/20 04:07:48;;;;;;;6.27;5.00;;;14.10;64.30;;;;;;5084168;28;20254;-46
2023/01/20 04:10:19;;;;;;;6.03;5.40;;;14.10;64.30;;;;;;5086510;28;20560;-46
2023/01/20 04:12:51;;;;;;;6.23;5.50;;;14.10;64.30;;;;;;5090024;28;20193;-46
2023/01/20 04:15:24;;;;;;;6.17;5.47;;;14.10;64.30;;;;;;5088691;28;20713;-46
2023/01/20 04:17:52;;;;;;;5.93;5.13;;;14.10;64.30;;;;;;5085825;28;20316;-46
2023/01/20 04:20:23;;;;;;;6.70;5.17;;;14.10;64.30;;;;;;5083400;28;20198;-46
2023/01/20 04:23:11;;;;;;;6.47;5.10;;;14.10;64.20;;;;;;5088348;28;20284;-46
2023/01/20 04:25:43;;;;;;;6.07;5.23;;;14.00;64.20;;;;;;5089600;28;20208;-46
2023/01/20 04:28:11;;;;;;;6.13;5.33;;;14.00;64.10;;;;;;5087330;28;20201;-46
2023/01/20 04:30:40;;;;;;;6.37;5.33;;;14.10;64.10;;;;;;5084615;27;20689;-46
2023/01/20 04:33:12;;;;;;;6.90;5.57;;;14.10;64.00;;;;;;5089300;28;20209;-46
2023/01/20 04:35:43;;;;;;;6.43;5.30;;;14.10;64.10;;;;;;5087643;28;20588;-46
2023/01/20 04:38:13;;;;;;;6.13;5.53;;;14.10;64.00;;;;;;5085376;28;20664;-46
2023/01/20 04:40:45;;;;;;;6.33;5.53;;;14.10;64.60;;;;;;5091598;28;20227;-46
2023/01/20 04:43:17;;;;;;;5.63;4.93;;;14.00;64.00;;;;;;5085840;28;20657;-46
2023/01/20 04:45:47;;;;;;;6.23;5.10;;;14.00;64.00;;;;;;5089842;28;20205;-46
2023/01/20 04:48:16;;;;;;;6.00;4.87;;;14.00;64.00;;;;;;5095648;28;20212;-46
2023/01/20 04:50:44;;;;;;;6.23;5.20;;;14.10;64.00;;;;;;5090296;28;20211;-46
2023/01/20 04:53:18;;;;;;;6.57;5.17;;;14.00;64.00;;;;;;5089326;28;20246;-46
2023/01/20 04:55:47;;;;;;;5.53;4.93;;;14.00;63.90;;;;;;5085499;27;20212;-45
2023/01/20 04:58:15;;;;;;;6.53;4.80;;;14.00;63.90;;;;;;5087728;28;20193;-46
2023/01/20 05:00:47;;;;;;;6.53;5.27;;;14.00;63.80;;;;;;5089750;28;20193;-46
2023/01/20 05:03:19;;;;;;;5.93;5.10;;;14.00;63.80;;;;;;5087980;28;20212;-46
2023/01/20 05:05:55;;;;;;;5.50;4.60;;;14.00;63.80;;;;;;5086513;28;20260;-46
2023/01/20 05:08:24;;;;;;;6.47;4.73;;;14.00;63.80;;;;;;5076633;28;20206;-46
2023/01/20 05:10:56;;;;;;;5.67;5.03;;;14.00;63.80;;;;;;5075328;28;20213;-46
2023/01/20 05:13:30;;;;;;;5.50;5.00;;;14.00;63.80;;;;;;5085824;28;20212;-46
2023/01/20 05:15:59;;;;;;;6.67;5.83;;;14.00;63.80;;;;;;5081066;28;20220;-46
2023/01/20 05:18:30;;;;;;;6.27;5.67;;;14.00;63.90;;;;;;5084924;27;20240;-46
2023/01/20 05:21:14;;;;;;;5.60;4.97;;;14.00;63.80;;;;;;5088796;28;20232;-46
2023/01/20 05:23:43;;;;;;;5.50;4.57;;;14.00;63.90;;;;;;5089191;28;20224;-46
2023/01/20 05:26:13;;;;;;;5.93;5.33;;;14.00;63.80;;;;;;5086536;28;20653;-46
2023/01/20 05:28:47;;;;;;;6.13;5.03;;;14.00;63.90;;;;;;5088726;28;20689;-46
2023/01/20 05:31:29;;;;;;;4.97;4.47;;;14.00;63.80;;;;;;5085301;28;20395;-46
2023/01/20 05:33:57;;;;;;;5.80;4.77;;;14.00;63.80;;;;;;5086129;28;20197;-46
2023/01/20 05:36:29;;;;;;;4.87;4.30;;;14.00;64.50;;;;;;5088718;28;20197;-46
2023/01/20 05:39:00;;;;;;;6.93;4.60;;;14.00;63.80;;;;;;5088288;28;20193;-46
2023/01/20 05:41:32;;;;;;;6.60;4.90;;;14.00;63.80;;;;;;5088403;28;20197;-46
2023/01/20 05:44:02;;;;;;;5.20;4.70;;;14.00;63.80;;;;;;5082861;28;20205;-45
2023/01/20 05:46:34;;;;;;;6.97;4.33;;;14.00;63.90;;;;;;5084007;28;20201;-46
2023/01/20 05:49:06;;;;;;;6.70;5.27;;;14.00;63.80;;;;;;5109425;27;20192;-46
2023/01/20 05:51:39;;;;;;;5.93;5.07;;;14.00;63.80;;;;;;5093260;28;20192;-46
2023/01/20 05:54:13;;;;;;;6.93;5.43;;;14.00;63.70;;;;;;5103481;27;20200;-46
2023/01/20 05:56:43;;;;;;;6.50;5.83;;;13.90;63.60;;;;;;5119000;27;20602;-46
2023/01/20 05:59:14;;;;;;;6.57;5.70;;;14.00;63.50;;;;;;5108644;28;20253;-46
2023/01/20 06:01:47;;;;;;;6.67;5.53;;;14.00;63.50;;;;;;5109814;27;20644;-46
2023/01/20 06:04:17;;;;;;;7.20;5.80;;;14.00;63.40;;;;;;5119973;27;20258;-46
2023/01/20 06:06:45;;;;;;;6.30;5.60;;;13.90;63.30;;;;;;5107198;27;20211;-46
2023/01/20 06:09:15;;;;;;;6.00;5.13;;;14.00;63.40;;;;;;5109346;28;20200;-46
2023/01/20 06:11:49;;;;;;;6.20;5.60;;;14.00;63.50;;;;;;5110460;28;20203;-46
2023/01/20 06:14:19;;;;;;;8.50;6.07;;;13.90;63.30;;;;;;5107329;28;20571;-46
2023/01/20 06:16:50;;;;;;;7.63;5.90;;;14.00;63.30;;;;;;5111321;27;20235;-46
2023/01/20 06:19:19;;;;;;;8.80;6.40;;;13.90;63.10;;;;;;5105669;28;20212;-46
2023/01/20 06:21:47;;;;;;;7.93;6.77;;;13.90;63.10;;;;;;5109548;28;20605;-46
2023/01/20 06:24:16;;;;;;;7.67;5.60;;;13.90;63.00;;;;;;5090871;28;20679;-46
2023/01/20 06:26:50;;;;;;;7.20;6.10;;;13.90;63.60;;;;;;5108214;27;20204;-46
2023/01/20 06:29:17;;;;;;;7.67;6.43;;;13.90;62.90;;;;;;5099896;28;20262;-46
2023/01/20 06:31:48;;;;;;;7.30;6.37;;;13.90;62.90;;;;;;5108807;27;20223;-46
2023/01/20 06:34:20;;;;;;;7.60;6.53;;;13.90;62.80;;;;;;5108663;28;20851;-46
2023/01/20 06:36:52;;;;;;;8.73;7.23;;;13.90;62.70;;;;;;5107625;28;20200;-46
2023/01/20 06:39:23;;;;;;;9.43;6.87;;;13.90;62.60;;;;;;5108522;27;20241;-46
2023/01/20 06:41:57;;;;;;;9.57;7.97;;;13.90;62.80;;;;;;5096178;27;20688;-46
2023/01/20 06:44:26;;;;;;;10.70;7.77;;;13.90;62.80;;;;;;5090593;28;20232;-46
2023/01/20 06:46:57;;;;;;;8.30;7.17;;;14.00;63.00;;;;;;5110249;27;20196;-45
2023/01/20 06:49:29;;;;;;;14.07;8.53;;;13.90;62.70;;;;;;5107746;28;20264;-46
2023/01/20 06:52:03;;;;;;;10.47;8.73;;;13.90;62.50;;;;;;5105656;27;20193;-46
2023/01/20 06:54:34;;;;;;;9.27;7.40;;;13.90;62.70;;;;;;5098902;28;20207;-46
2023/01/20 06:57:02;;;;;;;10.70;9.13;;;14.00;62.80;;;;;;5109264;27;20249;-46
2023/01/20 06:59:31;;;;;;;10.37;8.40;;;13.90;62.80;;;;;;5109990;27;20799;-46
2023/01/20 07:01:59;;;;;;;9.70;7.77;;;14.00;62.70;;;;;;5090007;27;20200;-46
2023/01/20 07:04:31;;;;;;;8.97;7.63;;;13.90;62.60;;;;;;5108641;28;20215;-46
2023/01/20 07:07:00;;;;;;;9.87;7.53;;;13.90;62.30;;;;;;5086218;28;20220;-46
2023/01/20 07:09:31;;;;;;;8.60;7.17;;;14.00;62.30;;;;;;5107459;28;20188;-46
2023/01/20 07:12:02;;;;;;;10.90;7.47;;;14.00;62.30;;;;;;5101418;28;20203;-46
2023/01/20 07:14:37;;;;;;;9.07;7.07;;;14.00;62.50;;;;;;5108046;28;20787;-46
2023/01/20 07:17:12;;;;;;;8.27;7.10;;;14.00;62.40;;;;;;5103136;28;20220;-46
2023/01/20 07:19:43;;;;;;;8.80;6.80;;;14.00;62.20;;;;;;5076726;28;20644;-46
2023/01/20 07:22:15;;;;;;;11.27;8.17;;;14.00;62.20;;;;;;5101237;28;20821;-45
2023/01/20 07:24:58;;;;;;;63.30;18.73;;;14.00;62.10;;;;;;5107852;28;20298;-46
2023/01/20 07:27:30;;;;;;;65.57;16.77;;;14.00;62.10;;;;;;5102524;28;20202;-45
2023/01/20 07:29:58;;;;;;;43.03;14.97;;;14.00;62.50;;;;;;5098746;28;20197;-45
2023/01/20 07:32:31;;;;;;;45.13;15.63;;;14.20;63.40;;;;;;5109367;28;20204;-45
2023/01/20 07:34:58;;;;;;;47.30;13.87;;;14.40;63.30;;;;;;5098356;28;20277;-45
2023/01/20 07:37:26;;;;;;;42.13;13.03;;;14.60;62.80;;;;;;5099464;28;20230;-45
2023/01/20 07:39:55;;;;;;;38.80;13.27;;;14.80;62.20;;;;;;5102874;28;20228;-45
2023/01/20 07:42:26;;;;;;;27.53;11.97;;;15.10;61.50;;;;;;5101315;28;20266;-45
2023/01/20 07:44:55;;;;;;;30.53;10.97;;;15.30;60.70;;;;;;5103483;28;20235;-46
2023/01/20 07:47:27;;;;;;;24.13;9.87;;;15.60;60.30;;;;;;5104991;28;20254;-45
2023/01/20 07:49:58;;;;;;;20.70;9.27;;;15.80;59.60;;;;;;5108166;28;20189;-45
2023/01/20 07:52:27;;;;;;;25.53;9.27;;;16.00;59.00;;;;;;5111188;28;20204;-45
2023/01/20 07:54:59;;;;;;;17.90;8.33;;;16.30;58.50;;;;;;5108759;27;20801;-45
2023/01/20 07:57:30;;;;;;;21.03;9.63;;;16.50;58.10;;;;;;5095020;27;20200;-45
2023/01/20 08:00:00;;;;;;;17.47;8.73;;;16.60;57.60;;;;;;5112164;27;20199;-45
2023/01/20 08:02:37;;;;;;;19.17;8.60;;;16.80;57.20;;;;;;5111419;28;20196;-48
2023/01/20 08:05:07;;;;;;;18.80;8.37;;;17.00;57.20;;;;;;5075296;28;20326;-47
2023/01/20 08:07:36;;;;;;;16.27;7.33;;;17.20;56.70;;;;;;5103282;27;20607;-45
2023/01/20 08:10:09;;;;;;;15.73;7.50;;;17.30;56.80;;;;;;5104658;28;20196;-48
2023/01/20 08:12:38;;;;;;;13.80;6.80;;;17.60;55.50;;;;;;5110436;27;20270;-48
2023/01/20 08:15:09;;;;;;;13.30;6.50;;;17.70;55.10;;;;;;5114639;27;20204;-46
2023/01/20 08:17:38;;;;;;;11.90;6.10;;;17.90;54.90;;;;;;5091333;28;20243;-46
2023/01/20 08:20:08;;;;;;;10.53;6.00;;;18.10;55.30;;;;;;5104584;28;20417;-48
2023/01/20 08:22:39;;;;;;;14.37;6.87;;;18.20;54.10;;;;;;5108567;28;20204;-48
2023/01/20 08:25:10;;;;;;;11.60;6.83;;;18.50;53.70;;;;;;5111868;27;20216;-48
2023/01/20 08:27:47;;;;;;;10.30;6.07;;;18.60;53.10;;;;;;5113161;27;20186;-48
2023/01/20 08:30:16;;;;;;;9.90;6.30;;;18.80;52.80;;;;;;5086153;28;20285;-46
2023/01/20 08:32:46;;;;;;;11.93;6.63;;;18.90;52.40;;;;;;5110334;28;20203;-45
2023/01/20 08:35:17;;;;;;;8.13;5.23;;;19.10;51.90;;;;;;5110441;28;20230;-48
2023/01/20 08:37:47;;;;;;;9.17;5.97;;;19.30;51.60;;;;;;5108540;27;20192;-48
2023/01/20 08:40:16;;;;;;;9.60;5.57;;;19.50;51.20;;;;;;5111704;27;20617;-46
2023/01/20 08:42:49;;;;;;;10.13;5.73;;;19.60;50.90;;;;;;5105535;27;20224;-46
2023/01/20 08:45:19;;;;;;;9.00;5.60;;;19.70;50.60;;;;;;5109308;27;20235;-48
2023/01/20 08:47:47;;;;;;;7.13;5.30;;;19.90;50.20;;;;;;5110230;27;20682;-48
2023/01/20 08:50:23;;;;;;;6.53;5.10;;;20.00;50.00;;;;;;5113955;27;20200;-48
2023/01/20 08:52:55;;;;;;;7.07;5.30;;;20.10;49.90;;;;;;5108489;27;20227;-48
2023/01/20 08:55:26;;;;;;;6.27;4.77;;;20.20;49.70;;;;;;5104590;27;20216;-46
2023/01/20 08:57:54;;;;;;;5.27;4.53;;;20.30;49.50;;;;;;5110301;27;20216;-46
2023/01/20 09:00:24;;;;;;;8.10;4.70;;;20.40;49.40;;;;;;5107763;27;20203;-46
2023/01/20 09:02:55;;;;;;;5.23;4.53;;;20.40;49.20;;;;;;5109510;27;20732;-45
2023/01/20 09:05:26;;;;;;;4.93;4.00;;;20.60;49.00;;;;;;5109239;28;20219;-46
2023/01/20 09:07:56;;;;;;;6.23;5.10;;;20.60;49.10;;;;;;5103905;28;20228;-46
2023/01/20 09:10:23;;;;;;;4.60;4.13;;;20.60;48.90;;;;;;5116498;27;20212;-48
2023/01/20 09:12:53;;;;;;;5.93;4.87;;;20.60;49.00;;;;;;5108166;27;20219;-48
2023/01/20 09:15:24;;;;;;;5.70;5.07;;;20.50;48.20;;;;;;5104857;27;20208;-48
2023/01/20 09:17:53;;;;;;;6.53;5.53;;;20.40;48.20;;;;;;5103718;28;20258;-48
2023/01/20 09:20:26;;;;;;;8.17;5.50;;;20.10;48.20;;;;;;5108458;28;20188;-46
2023/01/20 09:23:01;;;;;;;7.33;5.70;;;19.90;48.10;;;;;;5089888;28;20193;-46
2023/01/20 09:25:34;;;;;;;7.20;5.50;;;19.80;48.60;;;;;;5107003;27;20212;-46
2023/01/20 09:28:02;;;;;;;5.97;5.37;;;19.70;49.20;;;;;;5113358;27;20200;-46
2023/01/20 09:30:35;;;;;;;6.37;5.60;;;19.50;49.30;;;;;;5106655;27;20273;-45
2023/01/20 09:33:08;;;;;;;7.10;6.00;;;19.40;49.60;;;;;;5100012;28;20277;-45
2023/01/20 09:35:38;;;;;;;7.43;5.70;;;19.20;49.40;;;;;;5108950;28;20775;-45
2023/01/20 09:44:48;;;;;;;6.27;5.67;;;19.00;49.80;;;;;;5111452;27;20235;-46
2023/01/20 09:47:56;;;;;;;6.73;5.30;;;18.90;50.70;;;;;;5099272;28;20269;-49
2023/01/20 09:54:20;;;;;;;6.80;5.27;;;18.70;50.60;;;;;;5092023;28;20637;-50
2023/01/20 09:57:12;;;;;;;6.10;5.23;;;18.60;50.70;;;;;;5042010;28;20200;-48
2023/01/20 09:59:49;;;;;;;7.00;5.40;;;18.50;50.50;;;;;;5047465;28;20766;-48
2023/01/20 10:02:22;;;;;;;5.97;5.40;;;18.50;50.80;;;;;;5028750;28;20275;-47
2023/01/20 10:04:59;;;;;;;7.53;5.80;;;18.50;51.30;;;;;;5044557;28;20206;-48
2023/01/20 10:08:10;;;;;;;6.57;5.97;;;18.50;50.70;;;;;;5042283;28;20249;-45
2023/01/20 10:11:04;;;;;;;6.13;5.23;;;18.40;50.90;;;;;;5093497;27;20598;-46
2023/01/20 10:14:05;;;;;;;5.53;5.03;;;18.20;50.50;;;;;;5090191;28;20193;-46
2023/01/20 10:17:11;;;;;;;6.47;5.87;;;18.10;49.70;;;;;;5107703;27;20200;-45
2023/01/20 10:20:05;;;;;;;5.10;4.60;;;18.00;50.30;;;;;;5089556;28;20235;-44
2023/01/20 10:23:01;;;;;;;4.47;4.00;;;18.10;51.60;;;;;;5106510;27;20204;-44
2023/01/20 10:25:50;;;;;;;4.20;3.80;;;18.30;51.70;;;;;;5071665;27;20251;-45
2023/01/20 10:28:31;;;;;;;5.37;4.00;;;18.50;51.50;;;;;;5106323;28;20185;-45
2023/01/20 10:31:03;;;;;;;6.50;3.33;;;18.70;51.30;;;;;;5098679;27;20208;-48
2023/01/20 10:33:42;;;;;;;4.23;3.83;;;18.90;51.10;;;;;;5088297;27;20192;-48
2023/01/20 10:36:24;;;;;;;6.17;3.57;;;19.00;50.10;;;;;;5090266;28;20277;-49
2023/01/20 10:39:16;;;;;;;3.60;3.30;;;19.00;50.60;;;;;;5088960;28;20782;-49
2023/01/20 10:41:59;;;;;;;3.30;3.00;;;19.10;50.70;;;;;;5097685;28;20204;-49
2023/01/20 10:44:31;;;;;;;6.53;3.30;;;19.20;50.50;;;;;;5109402;28;20485;-48
2023/01/20 10:47:47;;;;;;;3.10;2.80;;;19.30;50.40;;;;;;5093514;28;20594;-46
2023/01/20 10:50:35;;;;;;;2.83;2.60;;;19.50;50.20;;;;;;5100973;27;20594;-48
2023/01/20 10:53:40;;;;;;;2.57;2.20;;;19.60;50.00;;;;;;5089908;28;20200;-49
2023/01/20 10:56:32;;;;;;;2.73;2.53;;;19.70;49.80;;;;;;5102421;27;20212;-48
2023/01/20 10:59:57;;;;;;;2.40;2.20;;;19.90;49.70;;;;;;5113991;27;20203;-47
2023/01/20 11:02:33;;;;;;;2.20;2.00;;;20.00;49.50;;;;;;4994278;28;20566;-48
2023/01/20 11:05:26;;;;;;;2.30;2.10;;;20.10;49.40;;;;;;5048288;28;20267;-47
2023/01/20 11:07:57;;;;;;;2.03;1.83;;;20.20;49.60;;;;;;5051280;28;20217;-48
2023/01/20 11:10:31;;;;;;;2.20;1.97;;;20.30;49.30;;;;;;5046778;28;20215;-48
2023/01/20 11:13:01;;;;;;;2.07;1.87;;;20.50;49.20;;;;;;5050127;28;20670;-48
2023/01/20 11:15:44;;;;;;;2.30;2.10;;;20.50;49.40;;;;;;5057620;28;20204;-48
2023/01/20 11:18:17;;;;;;;3.13;2.30;;;20.50;48.80;;;;;;5101207;27;20228;-49
2023/01/20 11:21:07;;;;;;;2.17;1.93;;;20.30;48.10;;;;;;5109988;28;20237;-48
2023/01/20 11:23:40;;;;;;;2.60;2.40;;;20.10;48.10;;;;;;5100344;28;20273;-48
2023/01/20 11:26:31;;;;;;;2.50;2.30;;;19.90;47.90;;;;;;5105753;28;21003;-49
2023/01/20 11:29:09;;;;;;;2.60;2.40;;;19.70;47.80;;;;;;5111314;28;20192;-48
2023/01/20 11:31:39;;;;;;;2.60;2.40;;;19.60;47.90;;;;;;5094240;28;20277;-48
2023/01/20 11:34:33;;;;;;;2.30;2.10;;;19.40;48.20;;;;;;5099589;28;20193;-49
2023/01/20 11:37:24;;;;;;;3.20;2.73;;;19.40;48.90;;;;;;5104836;28;20253;-47
2023/01/20 11:40:14;;;;;;;2.80;2.60;;;19.20;48.70;;;;;;5101269;28;20667;-48
2023/01/20 11:42:48;;;;;;;25.97;3.07;;;19.00;48.90;;;;;;5100731;28;20534;-46
2023/01/20 11:45:33;;;;;;;2.20;2.00;;;18.80;49.00;;;;;;5089048;28;20203;-47
2023/01/20 11:48:20;;;;;;;3.00;2.70;;;18.80;49.30;;;;;;5099601;28;20196;-46
2023/01/20 11:51:01;;;;;;;2.90;2.60;;;18.70;49.30;;;;;;5089682;28;20184;-49
2023/01/20 11:53:38;;;;;;;3.00;2.70;;;18.50;49.20;;;;;;5090754;28;20273;-48
2023/01/20 11:56:25;;;;;;;3.17;2.87;;;18.40;49.60;;;;;;5099284;28;20447;-45
2023/01/20 11:59:02;;;;;;;3.47;2.77;;;18.30;49.50;;;;;;5089657;28;20196;-46
2023/01/20 12:01:54;;;;;;;2.70;2.50;;;18.20;49.90;;;;;;5109377;28;20210;-46
2023/01/20 12:04:52;;;;;;;2.50;2.30;;;18.20;50.00;;;;;;5106967;28;20267;-46
2023/01/20 12:07:49;;;;;;;2.50;2.30;;;18.10;50.40;;;;;;5088670;28;20308;-48
2023/01/20 12:10:37;;;;;;;2.37;2.17;;;18.00;50.30;;;;;;5097168;28;20212;-48
2023/01/20 12:13:18;;;;;;;2.70;2.13;;;18.00;50.90;;;;;;5099252;28;20201;-48
2023/01/20 12:16:00;;;;;;;2.20;2.00;;;18.00;51.00;;;;;;5105290;28;20265;-47
2023/01/20 12:18:46;;;;;;;2.50;2.30;;;17.90;51.30;;;;;;5103003;28;20428;-47
2023/01/20 12:21:42;;;;;;;2.70;2.50;;;18.00;51.40;;;;;;5108344;28;20671;-45
2023/01/20 12:24:14;;;;;;;2.50;2.30;;;18.00;51.30;;;;;;5097250;28;20944;-45
2023/01/20 12:26:47;;;;;;;2.80;2.57;;;18.00;51.50;;;;;;5080543;28;20247;-47
2023/01/20 12:29:37;;;;;;;2.23;2.00;;;18.00;51.60;;;;;;5083728;28;20694;-47
2023/01/20 12:32:11;;;;;;;2.50;2.30;;;18.00;51.80;;;;;;5098781;28;20285;-48
2023/01/20 12:34:46;;;;;;;2.20;1.87;;;18.00;51.80;;;;;;5100356;28;20193;-48
2023/01/20 12:38:04;;;;;;;2.67;2.00;;;17.90;51.80;;;;;;5095756;28;20196;-47
2023/01/20 12:41:00;;;;;;;2.63;2.43;;;18.00;52.30;;;;;;5086817;28;20211;-48
2023/01/20 12:44:10;;;;;;;2.30;2.10;;;17.90;52.40;;;;;;5098817;28;20251;-48
2023/01/20 12:46:55;;;;;;;2.93;2.03;;;18.00;52.50;;;;;;5092678;27;20272;-45
2023/01/20 12:49:33;;;;;;;4.10;2.00;;;17.90;52.60;;;;;;5097076;28;20648;-45
2023/01/20 12:52:43;;;;;;;2.53;2.30;;;18.00;52.50;;;;;;5105189;28;20194;-47
2023/01/20 12:55:23;;;;;;;2.17;1.97;;;17.90;52.20;;;;;;5083346;28;20208;-48
2023/01/20 12:58:26;;;;;;;2.50;2.07;;;18.00;52.30;;;;;;5098899;28;20350;-48
2023/01/20 13:01:32;;;;;;;2.40;1.97;;;17.90;51.90;;;;;;5102820;28;20196;-46
2023/01/20 13:04:37;;;;;;;2.43;2.10;;;17.90;51.60;;;;;;5103017;28;20200;-45
2023/01/20 13:07:44;;;;;;;3.10;1.97;;;17.90;51.80;;;;;;5103429;27;20763;-48
2023/01/20 13:11:03;;;;;;;1.90;1.80;;;17.90;52.20;;;;;;5082019;28;20216;-45
2023/01/20 13:13:55;;;;;;;2.10;1.90;;;17.90;52.60;;;;;;5091659;28;20216;-45
2023/01/20 13:16:48;;;;;;;2.10;1.90;;;17.90;52.50;;;;;;5107340;28;21320;-48
2023/01/20 13:19:40;;;;;;;5.20;2.20;;;17.90;52.50;;;;;;5101097;28;20323;-49
2023/01/20 13:22:20;;;;;;;2.27;2.07;;;17.90;51.80;;;;;;5107654;28;20249;-46
2023/01/20 13:24:50;;;;;;;2.40;2.20;;;17.90;51.80;;;;;;5073165;28;20212;-45
2023/01/20 13:27:31;;;;;;;2.10;1.90;;;17.90;52.20;;;;;;5106531;27;20208;-47
2023/01/20 13:30:09;;;;;;;2.07;1.87;;;17.90;51.60;;;;;;5069494;28;20192;-49
2023/01/20 13:32:47;;;;;;;1.90;1.70;;;17.80;51.50;;;;;;5090356;28;20214;-48
2023/01/20 13:35:43;;;;;;;2.30;2.10;;;17.70;51.40;;;;;;5109145;27;20208;-47
2023/01/20 13:38:46;;;;;;;2.00;1.90;;;17.70;51.40;;;;;;5110798;27;20203;-48
2023/01/20 13:41:50;;;;;;;1.90;1.80;;;17.60;51.20;;;;;;5105224;28;20200;-47
2023/01/20 13:44:38;;;;;;;2.37;2.00;;;17.50;51.00;;;;;;5095656;28;20649;-48
2023/01/20 13:47:31;;;;;;;1.70;1.60;;;17.50;52.50;;;;;;5076599;28;20305;-47
2023/01/20 13:50:39;;;;;;;1.77;1.67;;;17.60;52.70;;;;;;5106777;28;20212;-48